This demonstration page uses our WeatherBlox Daily Observations layout. Learn more.

36.17497, -115.13722

Hourly Observations for July 23, 2018

Temp ( °F °C ) Dew Point ( °F °C ) Humidity (%) Winds ( mph kmh ) Pressure ( in mb ) Visibility ( mi km ) Precip ( " mm )
12:53 am 00:53 Clear 91 32.8 55 12.8 30 30 NNW 15 24 29.91 1013 10 16.09344 0 0
1:53 am 01:53 Clear 90 32.2 55 12.8 31 31 NNW 14 22 29.91 1013 10 16.09344 0 0
2:53 am 02:53 Clear 89 31.7 57 13.9 34 34 NNW 13 20 29.91 1013 10 16.09344 0 0
3:53 am 03:53 Clear 89 31.7 56 13.3 33 33 NW 9 15 29.91 1013 10 16.09344 0 0
4:53 am 04:53 Clear 87 30.6 56 13.3 35 35 NW 8 13 29.91 1013 10 16.09344 0 0
5:53 am 05:53 Sunny 88 31.1 55 12.8 33 33 N 9 15 29.91 1013 10 16.09344 0 0
6:53 am 06:53 Sunny 87 30.6 55 12.8 34 34 N 13 20 29.94 1014 10 16.09344 0 0
7:53 am 07:53 Sunny 91 32.8 56 13.3 31 31 N 15 24 29.94 1014 10 16.09344 0 0
8:53 am 08:53 Sunny 95 35 55 12.8 26 26 N 13 20 29.94 1014 10 16.09344 0 0
9:53 am 09:53 Sunny 98 36.7 55 12.8 24 24 NNW 6 9 29.94 1014 10 16.09344 0 0
10:53 am 10:53 Sunny 101 38.3 53 11.7 20 20 N 5 7 29.94 1014 10 16.09344 0 0
11:53 am 11:53 Sunny 103 39.4 53 11.7 19 19 N 3 6 29.91 1013 10 16.09344 0 0
12:53 pm 12:53 Sunny 104 40 52 11.1 18 18 SE 6 9 29.91 1013 10 16.09344 0 0
1:53 pm 13:53 Sunny 106 41.1 51 10.6 16 16 E 7 11 29.88 1012 10 16.09344 0 0
2:53 pm 14:53 Sunny 108 42.2 50 10 14 14 N 7 11 29.85 1011 10 16.09344 0 0
3:53 pm 15:53 Sunny 108 42.2 50 10 14 14 NNE 5 7 29.83 1010 10 16.09344 0 0
4:53 pm 16:53 Sunny 107 41.7 50 10 15 15 Calm 29.8 1009 10 16.09344 0 0
5:53 pm 17:53 Sunny 107 41.7 50 10 15 15 SE 5 7 29.8 1009 10 16.09344 0 0
6:53 pm 18:53 Sunny 106 41.1 49 9.4 15 15 WSW 5 7 29.8 1009 10 16.09344 0 0
7:53 pm 19:53 Sunny 105 40.6 49 9.4 15 15 SSE 3 6 29.8 1009 10 16.09344 0 0
8:53 pm 20:53 Clear 103 39.4 51 10.6 18 18 S 3 6 29.8 1009 10 16.09344 0 0
9:53 pm 21:53 Clear 102 38.9 51 10.6 18 18 W 5 7 29.83 1010 10 16.09344 0 0
10:53 pm 22:53 Clear 99 37.2 53 11.7 21 21 Calm 29.83 1010 10 16.09344 0 0
11:53 pm 23:53 Clear 97 36.1 53 11.7 23 23 Calm 29.83 1010 10 16.09344 0 0

Powered by AerisWeather